Dobrodošli na spletni strani vremenske postaje Senovo. Vse informacije so informativnega značaja, saj vremenska postaja ni del državne mreže meteoroloških postaj. AKTUALNIH OBVESTIL NI.


Sneg/Led Od: 23-02-2018 00:00 Do: 23:59 Opozorilo za: Sneg/Led Stopnja: Rumena info button

Pogled proti Armezu več informacij Pogled proti Armezu


Lisca več informacij Lisca


Radar strel več informacij blitzortung!


opozorilo za sneg/led več informacij rain snow radar


Obiščite še:

Template documentation
and downloads

And another site



Weather Underground, zgodovina - Tekstovno

Dnevni povzetek za Januar 3, 2018 Enote:  Obe    Angleško   Metrično
« Predhodni Dan
Naslednji Dan »
Dnevni Tedenski Mesečni Letni Po meri
  Višja: Nižja: Povprečje:
Temperatura: TemperatureC °F /  -17.8 °C -0.3 °F /  -17.9 °C 3 °F /  -16.1 °C
Točka rosišča: DewpointC °F /  -17.8 °C -1.7 °F /  -18.7 °C 1.1 °F /  -17.2 °C
Vlažnost: Humidity % 57 % 88 %
Hitrost vetra: WindSpeedKMH mph /  0 km/h - 2.4 mph /  3.9 km/h
Sunki vetra: WindSpeedGustKMH mph /  0 km/h - -
Veter:- - SW
Zračni tlak: PressurehPa in /  0 hPa 998.9 in /  33822.8 hPa -
Padavine: 2.3 in /  58.42 mm    
Historical Graphs
 
 
Tabelarni podarki za Januar 3, 2018
Čas Temperatura Točka rosišča Zračni tlak Veter Hitrost vetra Sunki vetra Vlažnost Intenziteta padavin (urna)
TemperatureC °F /  -17.8 °C DewpointC °F /  -17.8 °C PressurehPa in /  0 hPa Calm     Humidity % HourlyPrecipMM in /  0 mm
00:01 1.2 °F /  -17.1 °C 0.6 °F /  -17.4 °C 1015.1 in /  34371.3 hPa Calm     96 % 0.0 in /  0 mm
00:02 1.2 °F /  -17.1 °C 0.6 °F /  -17.4 °C 1015.1 in /  34371.3 hPa Calm     96 % 0.0 in /  0 mm
00:07 1.2 °F /  -17.1 °C 0.6 °F /  -17.4 °C 1015.1 in /  34371.3 hPa Calm     96 % 0.0 in /  0 mm
00:10 1.2 °F /  -17.1 °C 0.6 °F /  -17.4 °C 1015.1 in /  34371.3 hPa Calm     96 % 0.0 in /  0 mm
00:15 1.2 °F /  -17.1 °C 0.6 °F /  -17.4 °C 1015.1 in /  34371.3 hPa Calm   4.0 mph /  6.4 km/h 96 % 0.0 in /  0 mm
00:18 1.2 °F /  -17.1 °C 0.6 °F /  -17.4 °C 1015.1 in /  34371.3 hPa NW 0.6 mph /  1 km/h 4.3 mph /  6.9 km/h 96 % 0.0 in /  0 mm
00:23 1.2 °F /  -17.1 °C 0.6 °F /  -17.4 °C 1015.1 in /  34371.3 hPa NNW 1.4 mph /  2.3 km/h 5.0 mph /  8 km/h 96 % 0.0 in /  0 mm
00:28 1.2 °F /  -17.1 °C 0.6 °F /  -17.4 °C 1014.1 in /  34337.4 hPa NNW 2.7 mph /  4.3 km/h 5.5 mph /  8.9 km/h 96 % 0.0 in /  0 mm
00:33 1.1 °F /  -17.2 °C 0.6 °F /  -17.4 °C 1014.1 in /  34337.4 hPa NNW 2.3 mph /  3.7 km/h 5.5 mph /  8.9 km/h 96 % 0.0 in /  0 mm
00:35 1.1 °F /  -17.2 °C 0.6 °F /  -17.4 °C 1014.1 in /  34337.4 hPa NNW 1.6 mph /  2.6 km/h 5.5 mph /  8.9 km/h 96 % 0.0 in /  0 mm
00:40 1.1 °F /  -17.2 °C 0.6 °F /  -17.4 °C 1014.1 in /  34337.4 hPa NNW 0.2 mph /  0.3 km/h 2.6 mph /  4.2 km/h 96 % 0.0 in /  0 mm
00:47 1.1 °F /  -17.2 °C 0.6 °F /  -17.4 °C 1014.1 in /  34337.4 hPa Calm   1.8 mph /  2.9 km/h 96 % 0.0 in /  0 mm
00:49 1.1 °F /  -17.2 °C 0.6 °F /  -17.4 °C 1014.1 in /  34337.4 hPa Calm   1.8 mph /  2.9 km/h 96 % 0.0 in /  0 mm
00:50 1.2 °F /  -17.1 °C 0.6 °F /  -17.4 °C 1014.1 in /  34337.4 hPa Calm   1.8 mph /  2.9 km/h 96 % 0.0 in /  0 mm
00:55 1.2 °F /  -17.1 °C 0.6 °F /  -17.4 °C 1014.1 in /  34337.4 hPa Calm     96 % 0.0 in /  0 mm
00:56 1.2 °F /  -17.1 °C 0.6 °F /  -17.4 °C 1014.1 in /  34337.4 hPa Calm     96 % 0.0 in /  0 mm
01:01 1.2 °F /  -17.1 °C 0.6 °F /  -17.4 °C 1015.1 in /  34371.3 hPa North 0.8 mph /  1.3 km/h 4.7 mph /  7.6 km/h 96 % 0.0 in /  0 mm
01:02 1.2 °F /  -17.1 °C 0.6 °F /  -17.4 °C 1015.1 in /  34371.3 hPa North 1.0 mph /  1.6 km/h 4.7 mph /  7.6 km/h 96 % 0.0 in /  0 mm
01:07 1.2 °F /  -17.1 °C 0.6 °F /  -17.4 °C 1015.1 in /  34371.3 hPa NNW 1.8 mph /  2.9 km/h 4.7 mph /  7.6 km/h 96 % 0.0 in /  0 mm
01:08 1.2 °F /  -17.1 °C 0.6 °F /  -17.4 °C 1015.1 in /  34371.3 hPa NNW 1.4 mph /  2.3 km/h 4.3 mph /  6.9 km/h 96 % 0.0 in /  0 mm
01:14 1.2 °F /  -17.1 °C 0.6 °F /  -17.4 °C 1015.1 in /  34371.3 hPa WNW 0.5 mph /  0.8 km/h 4.3 mph /  6.9 km/h 96 % 0.0 in /  0 mm
01:18 1.2 °F /  -17.1 °C 0.6 °F /  -17.4 °C 1015.1 in /  34371.3 hPa Calm   2.6 mph /  4.2 km/h 96 % 0.0 in /  0 mm
01:23 1.2 °F /  -17.1 °C 0.6 °F /  -17.4 °C 1015.1 in /  34371.3 hPa WSW 0.2 mph /  0.3 km/h 2.6 mph /  4.2 km/h 96 % 0.0 in /  0 mm
01:25 1.2 °F /  -17.1 °C 0.6 °F /  -17.4 °C 1015.1 in /  34371.3 hPa WSW 0.2 mph /  0.3 km/h 2.6 mph /  4.2 km/h 96 % 0.0 in /  0 mm
01:27 1.2 °F /  -17.1 °C 0.6 °F /  -17.4 °C 1015.1 in /  34371.3 hPa WSW 0.2 mph /  0.3 km/h 2.6 mph /  4.2 km/h 96 % 0.0 in /  0 mm
01:32 1.2 °F /  -17.1 °C 0.6 °F /  -17.4 °C 1015.1 in /  34371.3 hPa Calm   2.1 mph /  3.4 km/h 96 % 0.0 in /  0 mm
01:37 1.3 °F /  -17.1 °C 0.7 °F /  -17.4 °C 1015.1 in /  34371.3 hPa North 0.2 mph /  0.3 km/h 2.1 mph /  3.4 km/h 96 % 0.0 in /  0 mm
01:42 1.3 °F /  -17.1 °C 0.7 °F /  -17.4 °C 1015.1 in /  34371.3 hPa NNE 0.5 mph /  0.8 km/h 4.0 mph /  6.4 km/h 96 % 0.0 in /  0 mm
01:47 1.3 °F /  -17.1 °C 0.7 °F /  -17.4 °C 1016.1 in /  34405.1 hPa NNE 0.5 mph /  0.8 km/h 4.0 mph /  6.4 km/h 96 % 0.0 in /  0 mm
01:52 1.3 °F /  -17.1 °C 0.7 °F /  -17.4 °C 1016.1 in /  34405.1 hPa North 0.3 mph /  0.5 km/h 4.0 mph /  6.4 km/h 96 % 0.0 in /  0 mm
01:54 1.3 °F /  -17.1 °C 0.7 °F /  -17.4 °C 1016.1 in /  34405.1 hPa NNW 0.2 mph /  0.3 km/h 4.0 mph /  6.4 km/h 96 % 0.0 in /  0 mm
01:59 1.3 °F /  -17.1 °C 0.7 °F /  -17.4 °C 1016.1 in /  34405.1 hPa North 0.8 mph /  1.3 km/h 4.0 mph /  6.4 km/h 96 % 0.0 in /  0 mm
02:04 1.3 °F /  -17.1 °C 0.7 °F /  -17.4 °C 1016.1 in /  34405.1 hPa NNE 1.1 mph /  1.8 km/h 5.5 mph /  8.9 km/h 96 % 0.0 in /  0 mm
02:05 1.3 °F /  -17.1 °C 0.7 °F /  -17.4 °C 1016.1 in /  34405.1 hPa North 1.6 mph /  2.6 km/h 5.5 mph /  8.9 km/h 96 % 0.0 in /  0 mm
02:10 1.3 °F /  -17.1 °C 0.7 °F /  -17.4 °C 1016.1 in /  34405.1 hPa North 2.1 mph /  3.4 km/h 5.8 mph /  9.3 km/h 96 % 0.0 in /  0 mm
02:14 1.2 °F /  -17.1 °C 0.6 °F /  -17.4 °C 1015.1 in /  34371.3 hPa North 2.1 mph /  3.4 km/h 5.8 mph /  9.3 km/h 96 % 0.0 in /  0 mm
02:19 1.2 °F /  -17.1 °C 0.6 °F /  -17.4 °C 1015.1 in /  34371.3 hPa NNW 0.6 mph /  1 km/h 5.0 mph /  8 km/h 96 % 0.0 in /  0 mm
02:21 1.2 °F /  -17.1 °C 0.6 °F /  -17.4 °C 1015.1 in /  34371.3 hPa NW 0.2 mph /  0.3 km/h 2.6 mph /  4.2 km/h 96 % 0.0 in /  0 mm
02:26 1.1 °F /  -17.2 °C 0.6 °F /  -17.4 °C 1015.1 in /  34371.3 hPa Calm   3.2 mph /  5.1 km/h 96 % 0.0 in /  0 mm
02:29 1.1 °F /  -17.2 °C 0.6 °F /  -17.4 °C 1015.1 in /  34371.3 hPa Calm   3.2 mph /  5.1 km/h 96 % 0.0 in /  0 mm
02:34 1.1 °F /  -17.2 °C 0.6 °F /  -17.4 °C 1015.1 in /  34371.3 hPa NNE 0.5 mph /  0.8 km/h 5.5 mph /  8.9 km/h 96 % 0.0 in /  0 mm
02:35 1.1 °F /  -17.2 °C 0.6 °F /  -17.4 °C 1015.1 in /  34371.3 hPa NNE 0.5 mph /  0.8 km/h 5.5 mph /  8.9 km/h 96 % 0.0 in /  0 mm
02:40 1.1 °F /  -17.2 °C 0.6 °F /  -17.4 °C 1015.1 in /  34371.3 hPa NNE 0.6 mph /  1 km/h 5.5 mph /  8.9 km/h 96 % 0.0 in /  0 mm
02:45 1.1 °F /  -17.2 °C 0.6 °F /  -17.4 °C 1015.1 in /  34371.3 hPa North 1.3 mph /  2.1 km/h 5.5 mph /  8.9 km/h 96 % 0.0 in /  0 mm
02:48 1.1 °F /  -17.2 °C 0.6 °F /  -17.4 °C 1015.1 in /  34371.3 hPa North 1.6 mph /  2.6 km/h 5.5 mph /  8.9 km/h 96 % 0.0 in /  0 mm
02:51 1.1 °F /  -17.2 °C 0.6 °F /  -17.4 °C 1015.1 in /  34371.3 hPa North 1.9 mph /  3.1 km/h 5.5 mph /  8.9 km/h 96 % 0.0 in /  0 mm
02:54 1.1 °F /  -17.2 °C 0.6 °F /  -17.4 °C 1015.1 in /  34371.3 hPa NNW 2.3 mph /  3.7 km/h 5.5 mph /  8.9 km/h 96 % 0.0 in /  0 mm
02:57 1.1 °F /  -17.2 °C 0.6 °F /  -17.4 °C 1015.1 in /  34371.3 hPa NNW 2.3 mph /  3.7 km/h 5.5 mph /  8.9 km/h 96 % 0.0 in /  0 mm
03:02 1.0 °F /  -17.2 °C 0.4 °F /  -17.6 °C 1015.1 in /  34371.3 hPa NNW 2.6 mph /  4.2 km/h 5.5 mph /  8.9 km/h 96 % 0.0 in /  0 mm
03:03 1.0 °F /  -17.2 °C 0.4 °F /  -17.6 °C 1015.1 in /  34371.3 hPa NNW 2.4 mph /  3.9 km/h 4.7 mph /  7.6 km/h 96 % 0.0 in /  0 mm
03:08 0.9 °F /  -17.3 °C 0.5 °F /  -17.5 °C 1015.1 in /  34371.3 hPa NNE 1.6 mph /  2.6 km/h 4.0 mph /  6.4 km/h 97 % 0.0 in /  0 mm
03:09 0.9 °F /  -17.3 °C 0.5 °F /  -17.5 °C 1015.1 in /  34371.3 hPa NNE 1.4 mph /  2.3 km/h 4.3 mph /  6.9 km/h 97 % 0.0 in /  0 mm
03:14 0.9 °F /  -17.3 °C 0.5 °F /  -17.5 °C 1014.1 in /  34337.4 hPa NNE 1.4 mph /  2.3 km/h 4.3 mph /  6.9 km/h 97 % 0.0 in /  0 mm
03:15 0.9 °F /  -17.3 °C 0.5 °F /  -17.5 °C 1014.1 in /  34337.4 hPa NNE 1.4 mph /  2.3 km/h 4.3 mph /  6.9 km/h 97 % 0.0 in /  0 mm
03:20 0.9 °F /  -17.3 °C 0.5 °F /  -17.5 °C 1014.1 in /  34337.4 hPa NE 1.1 mph /  1.8 km/h 3.5 mph /  5.6 km/h 97 % 0.0 in /  0 mm
03:21 0.9 °F /  -17.3 °C 0.5 °F /  -17.5 °C 1014.1 in /  34337.4 hPa NE 1.3 mph /  2.1 km/h 3.5 mph /  5.6 km/h 97 % 0.0 in /  0 mm
03:26 0.9 °F /  -17.3 °C 0.5 °F /  -17.5 °C 1014.1 in /  34337.4 hPa NE 0.5 mph /  0.8 km/h 2.6 mph /  4.2 km/h 97 % 0.0 in /  0 mm
03:27 0.9 °F /  -17.3 °C 0.5 °F /  -17.5 °C 1014.1 in /  34337.4 hPa NE 0.5 mph /  0.8 km/h 2.6 mph /  4.2 km/h 97 % 0.0 in /  0 mm
03:31 0.9 °F /  -17.3 °C 0.5 °F /  -17.5 °C 1014.1 in /  34337.4 hPa NNE 0.8 mph /  1.3 km/h 4.0 mph /  6.4 km/h 97 % 0.0 in /  0 mm
03:33 0.8 °F /  -17.3 °C 0.4 °F /  -17.6 °C 1014.1 in /  34337.4 hPa NNE 0.6 mph /  1 km/h 4.0 mph /  6.4 km/h 97 % 0.0 in /  0 mm
03:37 0.8 °F /  -17.3 °C 0.4 °F /  -17.6 °C 1014.1 in /  34337.4 hPa NNE 0.6 mph /  1 km/h 4.0 mph /  6.4 km/h 97 % 0.0 in /  0 mm
03:42 0.8 °F /  -17.3 °C 0.4 °F /  -17.6 °C 1014.1 in /  34337.4 hPa Calm     97 % 0.0 in /  0 mm
03:43 0.8 °F /  -17.3 °C 0.4 °F /  -17.6 °C 1014.1 in /  34337.4 hPa Calm     97 % 0.0 in /  0 mm
03:46 0.8 °F /  -17.3 °C 0.4 °F /  -17.6 °C 1014.1 in /  34337.4 hPa West 0.5 mph /  0.8 km/h 5.0 mph /  8 km/h 97 % 0.0 in /  0 mm
03:51 0.8 °F /  -17.3 °C 0.4 °F /  -17.6 °C 1014.1 in /  34337.4 hPa WNW 0.6 mph /  1 km/h 5.0 mph /  8 km/h 97 % 0.0 in /  0 mm
03:54 0.8 °F /  -17.3 °C 0.4 °F /  -17.6 °C 1014.1 in /  34337.4 hPa WNW 1.0 mph /  1.6 km/h 5.0 mph /  8 km/h 97 % 0.0 in /  0 mm
03:59 0.8 °F /  -17.3 °C 0.4 °F /  -17.6 °C 1013.1 in /  34303.6 hPa NNW 1.8 mph /  2.9 km/h 5.0 mph /  8 km/h 97 % 0.0 in /  0 mm
04:00 0.8 °F /  -17.3 °C 0.4 °F /  -17.6 °C 1013.1 in /  34303.6 hPa NNW 1.9 mph /  3.1 km/h 5.0 mph /  8 km/h 97 % 0.0 in /  0 mm
04:05 0.8 °F /  -17.3 °C 0.4 °F /  -17.6 °C 1013.1 in /  34303.6 hPa NNW 1.9 mph /  3.1 km/h 5.0 mph /  8 km/h 97 % 0.0 in /  0 mm
04:08 0.7 °F /  -17.4 °C 0.3 °F /  -17.6 °C 1013.1 in /  34303.6 hPa NNW 1.8 mph /  2.9 km/h 4.3 mph /  6.9 km/h 97 % 0.0 in /  0 mm
04:11 0.7 °F /  -17.4 °C 0.3 °F /  -17.6 °C 1013.1 in /  34303.6 hPa NNW 1.4 mph /  2.3 km/h 4.3 mph /  6.9 km/h 97 % 0.0 in /  0 mm
04:17 0.7 °F /  -17.4 °C 0.3 °F /  -17.6 °C 1013.1 in /  34303.6 hPa NW 0.3 mph /  0.5 km/h 1.8 mph /  2.9 km/h 97 % 0.0 in /  0 mm
04:22 0.7 °F /  -17.4 °C 0.3 °F /  -17.6 °C 1013.1 in /  34303.6 hPa Calm   1.8 mph /  2.9 km/h 97 % 0.0 in /  0 mm
04:27 0.7 °F /  -17.4 °C 0.3 °F /  -17.6 °C 1012.1 in /  34269.7 hPa NNW 0.6 mph /  1 km/h 3.2 mph /  5.1 km/h 97 % 0.0 in /  0 mm
04:30 0.7 °F /  -17.4 °C 0.3 °F /  -17.6 °C 1012.1 in /  34269.7 hPa NNW 0.8 mph /  1.3 km/h 3.2 mph /  5.1 km/h 97 % 0.0 in /  0 mm
04:32 0.7 °F /  -17.4 °C 0.3 °F /  -17.6 °C 1012.1 in /  34269.7 hPa NNW 1.0 mph /  1.6 km/h 3.2 mph /  5.1 km/h 97 % 0.0 in /  0 mm
04:37 0.7 °F /  -17.4 °C 0.3 °F /  -17.6 °C 1012.1 in /  34269.7 hPa ENE 0.5 mph /  0.8 km/h 3.5 mph /  5.6 km/h 97 % 0.0 in /  0 mm
04:44 0.7 °F /  -17.4 °C 0.3 °F /  -17.6 °C 1013.1 in /  34303.6 hPa NE 1.3 mph /  2.1 km/h 4.0 mph /  6.4 km/h 97 % 0.0 in /  0 mm
04:48 0.6 °F /  -17.4 °C 0.2 °F /  -17.7 °C 1013.1 in /  34303.6 hPa NNE 1.0 mph /  1.6 km/h 4.0 mph /  6.4 km/h 97 % 0.0 in /  0 mm
04:50 0.6 °F /  -17.4 °C 0.2 °F /  -17.7 °C 1013.1 in /  34303.6 hPa North 0.3 mph /  0.5 km/h 4.3 mph /  6.9 km/h 97 % 0.0 in /  0 mm
04:53 0.7 °F /  -17.4 °C 0.3 °F /  -17.6 °C 1013.1 in /  34303.6 hPa North 0.5 mph /  0.8 km/h 4.3 mph /  6.9 km/h 97 % 0.0 in /  0 mm
04:55 0.6 °F /  -17.4 °C 0.2 °F /  -17.7 °C 1013.1 in /  34303.6 hPa NNW 0.5 mph /  0.8 km/h 4.3 mph /  6.9 km/h 97 % 0.0 in /  0 mm
05:00 0.6 °F /  -17.4 °C 0.2 °F /  -17.7 °C 1013.1 in /  34303.6 hPa North 0.3 mph /  0.5 km/h 2.1 mph /  3.4 km/h 97 % 0.0 in /  0 mm
05:02 0.6 °F /  -17.4 °C 0.2 °F /  -17.7 °C 1013.1 in /  34303.6 hPa Calm     97 % 0.0 in /  0 mm
05:07 0.6 °F /  -17.4 °C 0.2 °F /  -17.7 °C 1013.1 in /  34303.6 hPa NNW 0.2 mph /  0.3 km/h 3.5 mph /  5.6 km/h 97 % 0.0 in /  0 mm
05:08 0.6 °F /  -17.4 °C 0.2 °F /  -17.7 °C 1013.1 in /  34303.6 hPa NNW 0.2 mph /  0.3 km/h 3.5 mph /  5.6 km/h 97 % 0.0 in /  0 mm
05:13 0.6 °F /  -17.4 °C 0.2 °F /  -17.7 °C 1013.1 in /  34303.6 hPa NW 0.8 mph /  1.3 km/h 6.4 mph /  10.3 km/h 97 % 0.0 in /  0 mm
05:15 0.6 °F /  -17.4 °C 0.2 °F /  -17.7 °C 1013.1 in /  34303.6 hPa NW 0.8 mph /  1.3 km/h 6.4 mph /  10.3 km/h 97 % 0.0 in /  0 mm
05:20 0.6 °F /  -17.4 °C 0.2 °F /  -17.7 °C 1013.1 in /  34303.6 hPa WNW 0.3 mph /  0.5 km/h 3.5 mph /  5.6 km/h 97 % 0.0 in /  0 mm
05:25 0.6 °F /  -17.4 °C 0.2 °F /  -17.7 °C 1013.1 in /  34303.6 hPa NW 0.3 mph /  0.5 km/h 4.0 mph /  6.4 km/h 97 % 0.0 in /  0 mm
05:30 0.6 °F /  -17.4 °C 0.2 °F /  -17.7 °C 1013.1 in /  34303.6 hPa West 0.8 mph /  1.3 km/h 4.0 mph /  6.4 km/h 97 % 0.0 in /  0 mm
05:34 0.6 °F /  -17.4 °C 0.2 °F /  -17.7 °C 1013.1 in /  34303.6 hPa West 1.0 mph /  1.6 km/h 4.0 mph /  6.4 km/h 97 % 0.0 in /  0 mm
05:40 0.6 °F /  -17.4 °C 0.2 °F /  -17.7 °C 1013.1 in /  34303.6 hPa West 1.6 mph /  2.6 km/h 4.7 mph /  7.6 km/h 97 % 0.0 in /  0 mm
05:45 0.6 °F /  -17.4 °C 0.2 °F /  -17.7 °C 1013.1 in /  34303.6 hPa West 2.6 mph /  4.2 km/h 6.4 mph /  10.3 km/h 97 % 0.0 in /  0 mm
05:49 0.5 °F /  -17.5 °C 0.1 °F /  -17.7 °C 1013.1 in /  34303.6 hPa WNW 1.4 mph /  2.3 km/h 6.4 mph /  10.3 km/h 97 % 0.0 in /  0 mm
05:50 0.5 °F /  -17.5 °C 0.1 °F /  -17.7 °C 1013.1 in /  34303.6 hPa WNW 1.4 mph /  2.3 km/h 6.4 mph /  10.3 km/h 97 % 0.0 in /  0 mm
05:54 0.5 °F /  -17.5 °C 0.1 °F /  -17.7 °C 1013.1 in /  34303.6 hPa NNW 0.2 mph /  0.3 km/h 2.1 mph /  3.4 km/h 97 % 0.0 in /  0 mm
05:55 0.5 °F /  -17.5 °C 0.1 °F /  -17.7 °C 1013.1 in /  34303.6 hPa NNW 0.2 mph /  0.3 km/h 2.1 mph /  3.4 km/h 97 % 0.0 in /  0 mm
06:00 0.5 °F /  -17.5 °C 0.1 °F /  -17.7 °C 1012.1 in /  34269.7 hPa Calm   1.8 mph /  2.9 km/h 97 % 0.0 in /  0 mm
06:01 0.5 °F /  -17.5 °C 0.1 °F /  -17.7 °C 1012.1 in /  34269.7 hPa Calm   1.8 mph /  2.9 km/h 97 % 0.0 in /  0 mm
06:06 0.5 °F /  -17.5 °C 0.1 °F /  -17.7 °C 1012.1 in /  34269.7 hPa SW 0.2 mph /  0.3 km/h 2.6 mph /  4.2 km/h 97 % 0.0 in /  0 mm
06:11 0.5 °F /  -17.5 °C 0.1 °F /  -17.7 °C 1012.1 in /  34269.7 hPa SSW 0.5 mph /  0.8 km/h 2.6 mph /  4.2 km/h 97 % 0.0 in /  0 mm
06:15 0.5 °F /  -17.5 °C 0.1 °F /  -17.7 °C 1012.1 in /  34269.7 hPa SSW 0.5 mph /  0.8 km/h 2.6 mph /  4.2 km/h 97 % 0.0 in /  0 mm
06:20 0.5 °F /  -17.5 °C 0.1 °F /  -17.7 °C 1012.1 in /  34269.7 hPa NE 0.5 mph /  0.8 km/h 3.2 mph /  5.1 km/h 97 % 0.0 in /  0 mm
06:25 0.5 °F /  -17.5 °C 0.1 °F /  -17.7 °C 1012.1 in /  34269.7 hPa NE 0.6 mph /  1 km/h 3.2 mph /  5.1 km/h 97 % 0.0 in /  0 mm
06:30 0.5 °F /  -17.5 °C 0.1 °F /  -17.7 °C 1012.1 in /  34269.7 hPa North 0.2 mph /  0.3 km/h   97 % 0.0 in /  0 mm
06:33 0.6 °F /  -17.4 °C 0.2 °F /  -17.7 °C 1012.1 in /  34269.7 hPa Calm     97 % 0.0 in /  0 mm
06:38 0.6 °F /  -17.4 °C 0.2 °F /  -17.7 °C 1012.1 in /  34269.7 hPa Calm     97 % 0.0 in /  0 mm
06:42 0.6 °F /  -17.4 °C 0.2 °F /  -17.7 °C 1012.1 in /  34269.7 hPa Calm     97 % 0.0 in /  0 mm
06:47 0.6 °F /  -17.4 °C 0.2 °F /  -17.7 °C 1012.1 in /  34269.7 hPa Calm     97 % 0.0 in /  0 mm
06:52 0.6 °F /  -17.4 °C 0.2 °F /  -17.7 °C 1012.1 in /  34269.7 hPa Calm   1.8 mph /  2.9 km/h 97 % 0.0 in /  0 mm
06:53 0.6 °F /  -17.4 °C 0.2 °F /  -17.7 °C 1012.1 in /  34269.7 hPa Calm   1.8 mph /  2.9 km/h 97 % 0.0 in /  0 mm
07:01 0.6 °F /  -17.4 °C 0.2 °F /  -17.7 °C 1011.1 in /  34235.8 hPa NE 0.6 mph /  1 km/h 3.5 mph /  5.6 km/h 97 % 0.0 in /  0 mm
07:03 0.6 °F /  -17.4 °C 0.2 °F /  -17.7 °C 1011.1 in /  34235.8 hPa NE 0.6 mph /  1 km/h 3.5 mph /  5.6 km/h 97 % 0.0 in /  0 mm
07:07 0.6 °F /  -17.4 °C 0.2 °F /  -17.7 °C 1011.1 in /  34235.8 hPa West 1.9 mph /  3.1 km/h 6.4 mph /  10.3 km/h 97 % 0.0 in /  0 mm
07:12 0.6 °F /  -17.4 °C 0.2 °F /  -17.7 °C 1011.1 in /  34235.8 hPa West 3.1 mph /  5 km/h 6.4 mph /  10.3 km/h 97 % 0.0 in /  0 mm
07:13 0.6 °F /  -17.4 °C 0.2 °F /  -17.7 °C 1011.1 in /  34235.8 hPa West 3.1 mph /  5 km/h 6.4 mph /  10.3 km/h 97 % 0.0 in /  0 mm
07:18 0.6 °F /  -17.4 °C 0.2 °F /  -17.7 °C 1011.1 in /  34235.8 hPa WSW 1.6 mph /  2.6 km/h 5.5 mph /  8.9 km/h 97 % 0.0 in /  0 mm
07:23 0.6 °F /  -17.4 °C 0.2 °F /  -17.7 °C 1011.1 in /  34235.8 hPa SSE 0.2 mph /  0.3 km/h 2.6 mph /  4.2 km/h 97 % 0.0 in /  0 mm
07:29 0.7 °F /  -17.4 °C 0.3 °F /  -17.6 °C 1011.1 in /  34235.8 hPa Calm   2.1 mph /  3.4 km/h 97 % 0.0 in /  0 mm
07:34 0.7 °F /  -17.4 °C 0.3 °F /  -17.6 °C 1011.1 in /  34235.8 hPa Calm   1.8 mph /  2.9 km/h 97 % 0.0 in /  0 mm
07:35 0.7 °F /  -17.4 °C 0.3 °F /  -17.6 °C 1011.1 in /  34235.8 hPa Calm   1.8 mph /  2.9 km/h 97 % 0.0 in /  0 mm
07:40 0.7 °F /  -17.4 °C 0.3 °F /  -17.6 °C 1011.1 in /  34235.8 hPa Calm   1.8 mph /  2.9 km/h 97 % 0.0 in /  0 mm
07:45 0.7 °F /  -17.4 °C 0.3 °F /  -17.6 °C 1011.1 in /  34235.8 hPa Calm   1.4 mph /  2.3 km/h 97 % 0.0 in /  0 mm
07:46 0.7 °F /  -17.4 °C 0.3 °F /  -17.6 °C 1011.1 in /  34235.8 hPa Calm   1.4 mph /  2.3 km/h 97 % 0.0 in /  0 mm
07:51 0.7 °F /  -17.4 °C 0.3 °F /  -17.6 °C 1011.1 in /  34235.8 hPa Calm   4.7 mph /  7.6 km/h 97 % 0.0 in /  0 mm
07:53 0.7 °F /  -17.4 °C 0.3 °F /  -17.6 °C 1011.1 in /  34235.8 hPa West 0.5 mph /  0.8 km/h 4.7 mph /  7.6 km/h 97 % 0.0 in /  0 mm
07:55 0.7 °F /  -17.4 °C 0.3 °F /  -17.6 °C 1011.1 in /  34235.8 hPa West 0.5 mph /  0.8 km/h 4.7 mph /  7.6 km/h 97 % 0.0 in /  0 mm
08:00 0.7 °F /  -17.4 °C 0.3 °F /  -17.6 °C 1011.1 in /  34235.8 hPa NW 1.3 mph /  2.1 km/h 4.7 mph /  7.6 km/h 97 % 0.0 in /  0 mm
08:02 0.7 °F /  -17.4 °C 0.3 °F /  -17.6 °C 1011.1 in /  34235.8 hPa NNW 1.0 mph /  1.6 km/h 5.0 mph /  8 km/h 97 % 0.0 in /  0 mm
08:07 0.7 °F /  -17.4 °C 0.3 °F /  -17.6 °C 1011.1 in /  34235.8 hPa NNW 1.4 mph /  2.3 km/h 5.0 mph /  8 km/h 97 % 0.0 in /  0 mm
08:13 0.7 °F /  -17.4 °C 0.3 °F /  -17.6 °C 1011.1 in /  34235.8 hPa NNW 0.8 mph /  1.3 km/h 5.8 mph /  9.3 km/h 97 % 0.0 in /  0 mm
08:18 0.7 °F /  -17.4 °C 0.3 °F /  -17.6 °C 1011.1 in /  34235.8 hPa NNW 1.9 mph /  3.1 km/h 5.8 mph /  9.3 km/h 97 % 0.0 in /  0 mm
08:21 0.6 °F /  -17.4 °C 0.2 °F /  -17.7 °C 1011.1 in /  34235.8 hPa NNW 1.8 mph /  2.9 km/h 5.8 mph /  9.3 km/h 97 % 0.0 in /  0 mm
08:22 0.6 °F /  -17.4 °C 0.2 °F /  -17.7 °C 1011.1 in /  34235.8 hPa NNW 1.9 mph /  3.1 km/h 5.8 mph /  9.3 km/h 97 % 0.0 in /  0 mm
08:27 0.7 °F /  -17.4 °C 0.3 °F /  -17.6 °C 1011.1 in /  34235.8 hPa NE 0.3 mph /  0.5 km/h 4.3 mph /  6.9 km/h 97 % 0.0 in /  0 mm
08:28 0.7 °F /  -17.4 °C 0.3 °F /  -17.6 °C 1011.1 in /  34235.8 hPa Calm     97 % 0.0 in /  0 mm
08:31 0.7 °F /  -17.4 °C 0.3 °F /  -17.6 °C 1011.1 in /  34235.8 hPa SW 0.6 mph /  1 km/h 4.7 mph /  7.6 km/h 97 % 0.0 in /  0 mm
08:36 0.7 °F /  -17.4 °C 0.3 °F /  -17.6 °C 1011.1 in /  34235.8 hPa SW 2.1 mph /  3.4 km/h 5.0 mph /  8 km/h 97 % 0.0 in /  0 mm
08:41 0.7 °F /  -17.4 °C 0.3 °F /  -17.6 °C 1011.1 in /  34235.8 hPa SSW 2.9 mph /  4.7 km/h 6.4 mph /  10.3 km/h 97 % 0.0 in /  0 mm
08:43 0.7 °F /  -17.4 °C 0.3 °F /  -17.6 °C 1009.0 in /  34164.7 hPa SSW 2.6 mph /  4.2 km/h 6.4 mph /  10.3 km/h 97 % 0.0 in /  0 mm
08:47 0.7 °F /  -17.4 °C 0.3 °F /  -17.6 °C 1009.0 in /  34164.7 hPa SSW 3.2 mph /  5.1 km/h 6.4 mph /  10.3 km/h 97 % 0.0 in /  0 mm
08:52 0.7 °F /  -17.4 °C 0.3 °F /  -17.6 °C 1009.0 in /  34164.7 hPa SW 4.0 mph /  6.4 km/h 7.9 mph /  12.7 km/h 97 % 0.0 in /  0 mm
08:57 0.7 °F /  -17.4 °C 0.3 °F /  -17.6 °C 1009.0 in /  34164.7 hPa WSW 4.0 mph /  6.4 km/h 7.9 mph /  12.7 km/h 97 % 0.0 in /  0 mm
08:58 0.7 °F /  -17.4 °C 0.3 °F /  -17.6 °C 1008.0 in /  34130.9 hPa WSW 3.7 mph /  6 km/h 7.9 mph /  12.7 km/h 97 % 0.0 in /  0 mm
09:03 0.7 °F /  -17.4 °C 0.3 °F /  -17.6 °C 1008.0 in /  34130.9 hPa WSW 2.4 mph /  3.9 km/h 6.4 mph /  10.3 km/h 97 % 0.0 in /  0 mm
09:08 0.7 °F /  -17.4 °C 0.3 °F /  -17.6 °C 1008.0 in /  34130.9 hPa WSW 2.9 mph /  4.7 km/h 5.5 mph /  8.9 km/h 97 % 0.0 in /  0 mm
09:09 0.7 °F /  -17.4 °C 0.3 °F /  -17.6 °C 1008.0 in /  34130.9 hPa WSW 3.1 mph /  5 km/h 5.5 mph /  8.9 km/h 97 % 0.0 in /  0 mm
09:14 0.8 °F /  -17.3 °C 0.4 °F /  -17.6 °C 1009.0 in /  34164.7 hPa West 2.1 mph /  3.4 km/h 5.5 mph /  8.9 km/h 97 % 0.0 in /  0 mm
09:17 0.8 °F /  -17.3 °C 0.4 °F /  -17.6 °C 1009.0 in /  34164.7 hPa WSW 1.6 mph /  2.6 km/h 6.1 mph /  9.8 km/h 97 % 0.0 in /  0 mm
09:20 0.9 °F /  -17.3 °C 0.5 °F /  -17.5 °C 1009.0 in /  34164.7 hPa WSW 2.4 mph /  3.9 km/h 6.1 mph /  9.8 km/h 97 % 0.0 in /  0 mm
09:25 0.9 °F /  -17.3 °C 0.5 °F /  -17.5 °C 1009.0 in /  34164.7 hPa West 3.7 mph /  6 km/h 6.1 mph /  9.8 km/h 97 % 0.0 in /  0 mm
09:27 0.9 °F /  -17.3 °C 0.5 °F /  -17.5 °C 1008.0 in /  34130.9 hPa WNW 3.5 mph /  5.6 km/h 6.1 mph /  9.8 km/h 97 % 0.0 in /  0 mm
09:32 0.9 °F /  -17.3 °C 0.5 °F /  -17.5 °C 1008.0 in /  34130.9 hPa West 2.9 mph /  4.7 km/h 6.4 mph /  10.3 km/h 97 % 0.0 in /  0 mm
09:37 0.9 °F /  -17.3 °C 0.5 °F /  -17.5 °C 1008.0 in /  34130.9 hPa NNW 1.0 mph /  1.6 km/h 6.4 mph /  10.3 km/h 97 % 0.0 in /  0 mm
09:42 1.0 °F /  -17.2 °C 0.6 °F /  -17.4 °C 1008.0 in /  34130.9 hPa North 0.2 mph /  0.3 km/h 3.5 mph /  5.6 km/h 97 % 0.0 in /  0 mm
09:46 1.0 °F /  -17.2 °C 0.6 °F /  -17.4 °C 1008.0 in /  34130.9 hPa NNW 0.2 mph /  0.3 km/h 4.3 mph /  6.9 km/h 97 % 0.0 in /  0 mm
09:48 1.0 °F /  -17.2 °C 0.6 °F /  -17.4 °C 1008.0 in /  34130.9 hPa NW 0.5 mph /  0.8 km/h 4.7 mph /  7.6 km/h 97 % 0.0 in /  0 mm
09:53 1.0 °F /  -17.2 °C 0.6 °F /  -17.4 °C 1008.0 in /  34130.9 hPa NW 1.3 mph /  2.1 km/h 6.1 mph /  9.8 km/h 97 % 0.0 in /  0 mm
09:56 1.1 °F /  -17.2 °C 0.7 °F /  -17.4 °C 1008.0 in /  34130.9 hPa WNW 2.3 mph /  3.7 km/h 6.1 mph /  9.8 km/h 97 % 0.0 in /  0 mm
10:01 1.1 °F /  -17.2 °C 0.7 °F /  -17.4 °C 1008.0 in /  34130.9 hPa West 1.9 mph /  3.1 km/h 5.5 mph /  8.9 km/h 97 % 0.0 in /  0 mm
10:03 1.2 °F /  -17.1 °C 0.8 °F /  -17.3 °C 1008.0 in /  34130.9 hPa SW 1.4 mph /  2.3 km/h 5.0 mph /  8 km/h 97 % 0.0 in /  0 mm
10:08 1.3 °F /  -17.1 °C 0.9 °F /  -17.3 °C 1008.0 in /  34130.9 hPa SW 0.8 mph /  1.3 km/h 4.7 mph /  7.6 km/h 97 % 0.0 in /  0 mm
10:09 1.3 °F /  -17.1 °C 0.9 °F /  -17.3 °C 1008.0 in /  34130.9 hPa SW 1.0 mph /  1.6 km/h 4.7 mph /  7.6 km/h 97 % 0.0 in /  0 mm
10:14 1.4 °F /  -17 °C 1.0 °F /  -17.2 °C 1006.0 in /  34063.2 hPa NW 1.3 mph /  2.1 km/h 5.0 mph /  8 km/h 97 % 0.0 in /  0 mm
10:15 1.4 °F /  -17 °C 1.0 °F /  -17.2 °C 1006.0 in /  34063.2 hPa NW 1.4 mph /  2.3 km/h 5.8 mph /  9.3 km/h 97 % 0.0 in /  0 mm
10:20 1.4 °F /  -17 °C 1.0 °F /  -17.2 °C 1006.0 in /  34063.2 hPa WNW 3.9 mph /  6.3 km/h 9.3 mph /  15 km/h 97 % 0.0 in /  0 mm
10:21 1.4 °F /  -17 °C 1.0 °F /  -17.2 °C 1006.0 in /  34063.2 hPa WNW 4.0 mph /  6.4 km/h 9.3 mph /  15 km/h 97 % 0.0 in /  0 mm
10:26 1.6 °F /  -16.9 °C 1.2 °F /  -17.1 °C 1006.0 in /  34063.2 hPa SW 5.0 mph /  8 km/h 9.3 mph /  15 km/h 97 % 0.0 in /  0 mm
10:29 1.7 °F /  -16.8 °C 1.3 °F /  -17.1 °C 1007.0 in /  34097 hPa SSW 5.0 mph /  8 km/h 7.9 mph /  12.7 km/h 97 % 0.0 in /  0 mm
10:35 1.9 °F /  -16.7 °C 1.5 °F /  -16.9 °C 1007.0 in /  34097 hPa SSW 5.0 mph /  8 km/h 7.9 mph /  12.7 km/h 97 % 0.0 in /  0 mm
10:40 2.0 °F /  -16.7 °C 1.6 °F /  -16.9 °C 1007.0 in /  34097 hPa SSW 3.9 mph /  6.3 km/h 6.1 mph /  9.8 km/h 97 % 0.0 in /  0 mm
10:42 2.1 °F /  -16.6 °C 1.7 °F /  -16.8 °C 1006.0 in /  34063.2 hPa SSW 3.7 mph /  6 km/h 6.1 mph /  9.8 km/h 97 % 0.0 in /  0 mm
10:47 2.2 °F /  -16.6 °C 1.8 °F /  -16.8 °C 1006.0 in /  34063.2 hPa SW 4.7 mph /  7.6 km/h 7.9 mph /  12.7 km/h 97 % 0.0 in /  0 mm
10:52 2.3 °F /  -16.5 °C 1.9 °F /  -16.7 °C 1006.0 in /  34063.2 hPa SW 5.3 mph /  8.5 km/h 7.9 mph /  12.7 km/h 97 % 0.0 in /  0 mm
10:53 2.3 °F /  -16.5 °C 1.9 °F /  -16.7 °C 1006.0 in /  34063.2 hPa SW 5.3 mph /  8.5 km/h 7.9 mph /  12.7 km/h 97 % 0.0 in /  0 mm
10:58 2.3 °F /  -16.5 °C 1.9 °F /  -16.7 °C 1006.0 in /  34063.2 hPa SW 5.6 mph /  9 km/h 10.1 mph /  16.3 km/h 97 % 0.0 in /  0 mm
11:03 2.4 °F /  -16.4 °C 2.0 °F /  -16.7 °C 1006.0 in /  34063.2 hPa SW 5.0 mph /  8 km/h 10.1 mph /  16.3 km/h 97 % 0.0 in /  0 mm
11:06 2.4 °F /  -16.4 °C 2.0 °F /  -16.7 °C 1006.0 in /  34063.2 hPa SSW 3.9 mph /  6.3 km/h 6.1 mph /  9.8 km/h 97 % 0.0 in /  0 mm
11:09 2.5 °F /  -16.4 °C 2.1 °F /  -16.6 °C 1006.0 in /  34063.2 hPa SSW 3.1 mph /  5 km/h 5.8 mph /  9.3 km/h 97 % 0.0 in /  0 mm
11:14 2.6 °F /  -16.3 °C 2.2 °F /  -16.6 °C 1003.9 in /  33992.1 hPa South 1.0 mph /  1.6 km/h 5.0 mph /  8 km/h 97 % 0.0 in /  0 mm
11:20 2.8 °F /  -16.2 °C 2.4 °F /  -16.4 °C 1003.9 in /  33992.1 hPa SSE 1.0 mph /  1.6 km/h 6.1 mph /  9.8 km/h 97 % 0.0 in /  0 mm
11:23 3.0 °F /  -16.1 °C 2.6 °F /  -16.3 °C 1003.9 in /  33992.1 hPa SSE 2.3 mph /  3.7 km/h 6.4 mph /  10.3 km/h 97 % 0.0 in /  0 mm
11:25 3.1 °F /  -16.1 °C 2.7 °F /  -16.3 °C 1003.9 in /  33992.1 hPa SSE 3.5 mph /  5.6 km/h 6.4 mph /  10.3 km/h 97 % 0.0 in /  0 mm
11:30 3.2 °F /  -16 °C 2.8 °F /  -16.2 °C 1003.9 in /  33992.1 hPa South 4.8 mph /  7.7 km/h 7.9 mph /  12.7 km/h 97 % 0.0 in /  0 mm
11:31 3.3 °F /  -15.9 °C 2.9 °F /  -16.2 °C 1003.9 in /  33992.1 hPa South 4.8 mph /  7.7 km/h 7.9 mph /  12.7 km/h 97 % 0.0 in /  0 mm
11:36 3.6 °F /  -15.8 °C 3.2 °F /  -16 °C 1003.9 in /  33992.1 hPa SSW 5.6 mph /  9 km/h 7.9 mph /  12.7 km/h 97 % 0.0 in /  0 mm
11:37 3.6 °F /  -15.8 °C 3.2 °F /  -16 °C 1003.9 in /  33992.1 hPa SSW 5.6 mph /  9 km/h 7.9 mph /  12.7 km/h 97 % 0.0 in /  0 mm
11:42 4.1 °F /  -15.5 °C 3.7 °F /  -15.7 °C 1003.9 in /  33992.1 hPa SSW 6.1 mph /  9.8 km/h 10.1 mph /  16.3 km/h 97 % 0.0 in /  0 mm
11:47 4.4 °F /  -15.3 °C 3.9 °F /  -15.6 °C 1003.9 in /  33992.1 hPa SSW 6.0 mph /  9.7 km/h 10.1 mph /  16.3 km/h 97 % 0.0 in /  0 mm
11:48 4.4 °F /  -15.3 °C 3.9 °F /  -15.6 °C 1003.9 in /  33992.1 hPa SSW 6.0 mph /  9.7 km/h 10.1 mph /  16.3 km/h 97 % 0.0 in /  0 mm
11:53 4.8 °F /  -15.1 °C 4.4 °F /  -15.3 °C 1003.9 in /  33992.1 hPa SSW 5.5 mph /  8.9 km/h 10.5 mph /  16.9 km/h 97 % 0.0 in /  0 mm
11:58 5.1 °F /  -14.9 °C 4.7 °F /  -15.2 °C 1002.9 in /  33958.2 hPa South 4.7 mph /  7.6 km/h 10.5 mph /  16.9 km/h 97 % 0.0 in /  0 mm
12:00 5.2 °F /  -14.9 °C 4.8 °F /  -15.1 °C 1002.9 in /  33958.2 hPa South 4.3 mph /  6.9 km/h 10.5 mph /  16.9 km/h 97 % 0.0 in /  0 mm
12:05 5.5 °F /  -14.7 °C 5.1 °F /  -14.9 °C 1002.9 in /  33958.2 hPa SSE 3.5 mph /  5.6 km/h 7.6 mph /  12.2 km/h 97 % 0.0 in /  0 mm
12:06 5.6 °F /  -14.7 °C 5.2 °F /  -14.9 °C 1002.9 in /  33958.2 hPa SSE 3.9 mph /  6.3 km/h 7.6 mph /  12.2 km/h 97 % 0.0 in /  0 mm
12:10 5.8 °F /  -14.6 °C 5.3 °F /  -14.8 °C 1002.9 in /  33958.2 hPa SSE 3.7 mph /  6 km/h 6.9 mph /  11.1 km/h 97 % 0.0 in /  0 mm
12:15 6.0 °F /  -14.4 °C 5.6 °F /  -14.7 °C 1002.9 in /  33958.2 hPa South 4.3 mph /  6.9 km/h 7.9 mph /  12.7 km/h 97 % 0.0 in /  0 mm
12:17 6.1 °F /  -14.4 °C 5.7 °F /  -14.6 °C 1002.9 in /  33958.2 hPa South 4.5 mph /  7.2 km/h 7.9 mph /  12.7 km/h 97 % 0.0 in /  0 mm
12:18 6.1 °F /  -14.4 °C 5.7 °F /  -14.6 °C 1002.9 in /  33958.2 hPa SSW 4.5 mph /  7.2 km/h 7.9 mph /  12.7 km/h 97 % 0.0 in /  0 mm
12:22 6.1 °F /  -14.4 °C 5.7 °F /  -14.6 °C 1002.9 in /  33958.2 hPa SSW 6.4 mph /  10.3 km/h 14.0 mph /  22.5 km/h 97 % 0.0 in /  0 mm
12:27 6.0 °F /  -14.4 °C 5.6 °F /  -14.7 °C 999.9 in /  33856.6 hPa SSW 6.8 mph /  10.9 km/h 14.0 mph /  22.5 km/h 97 % 0.0 in /  0 mm
12:31 6.1 °F /  -14.4 °C 5.5 °F /  -14.7 °C 999.9 in /  33856.6 hPa SSW 6.3 mph /  10.1 km/h 12.6 mph /  20.3 km/h 96 % 0.0 in /  0 mm
12:33 6.2 °F /  -14.3 °C 5.6 °F /  -14.7 °C 999.9 in /  33856.6 hPa SSW 5.3 mph /  8.5 km/h 7.9 mph /  12.7 km/h 96 % 0.0 in /  0 mm
12:37 6.4 °F /  -14.2 °C 5.8 °F /  -14.6 °C 999.9 in /  33856.6 hPa South 4.0 mph /  6.4 km/h 9.7 mph /  15.6 km/h 96 % 0.0 in /  0 mm
12:41 6.7 °F /  -14.1 °C 6.1 °F /  -14.4 °C 999.9 in /  33856.6 hPa SSW 4.7 mph /  7.6 km/h 10.5 mph /  16.9 km/h 96 % 0.0 in /  0 mm
12:44 6.8 °F /  -14 °C 6.2 °F /  -14.3 °C 1000.9 in /  33890.5 hPa SSW 5.3 mph /  8.5 km/h 10.5 mph /  16.9 km/h 96 % 0.0 in /  0 mm
12:49 7.1 °F /  -13.8 °C 6.5 °F /  -14.2 °C 1000.9 in /  33890.5 hPa South 6.9 mph /  11.1 km/h 11.1 mph /  17.9 km/h 96 % 0.0 in /  0 mm
12:50 7.1 °F /  -13.8 °C 6.5 °F /  -14.2 °C 1000.9 in /  33890.5 hPa South 7.1 mph /  11.4 km/h 11.1 mph /  17.9 km/h 96 % 0.0 in /  0 mm
12:54 7.5 °F /  -13.6 °C 6.9 °F /  -13.9 °C 1000.9 in /  33890.5 hPa South 6.4 mph /  10.3 km/h 11.1 mph /  17.9 km/h 96 % 0.0 in /  0 mm
12:55 7.5 °F /  -13.6 °C 6.9 °F /  -13.9 °C 1000.9 in /  33890.5 hPa South 6.4 mph /  10.3 km/h 11.1 mph /  17.9 km/h 96 % 0.0 in /  0 mm
13:05 7.7 °F /  -13.5 °C 6.8 °F /  -14 °C 999.9 in /  33856.6 hPa West 4.7 mph /  7.6 km/h 9.7 mph /  15.6 km/h 94 % 0.0 in /  0 mm
13:07 7.7 °F /  -13.5 °C 6.8 °F /  -14 °C 999.9 in /  33856.6 hPa West 5.5 mph /  8.9 km/h 16.3 mph /  26.2 km/h 94 % 0.0 in /  0 mm
13:11 7.7 °F /  -13.5 °C 6.7 °F /  -14.1 °C 999.9 in /  33856.6 hPa West 6.3 mph /  10.1 km/h 16.3 mph /  26.2 km/h 93 % 0.0 in /  0 mm
13:12 7.7 °F /  -13.5 °C 6.5 °F /  -14.2 °C 999.9 in /  33856.6 hPa West 6.9 mph /  11.1 km/h 16.3 mph /  26.2 km/h 92 % 0.0 in /  0 mm
13:17 7.7 °F /  -13.5 °C 6.3 °F /  -14.3 °C 999.9 in /  33856.6 hPa WSW 7.2 mph /  11.6 km/h 14.0 mph /  22.5 km/h 91 % 0.0 in /  0 mm
13:18 7.7 °F /  -13.5 °C 6.2 °F /  -14.3 °C 999.9 in /  33856.6 hPa WSW 7.2 mph /  11.6 km/h 14.0 mph /  22.5 km/h 90 % 0.0 in /  0 mm
13:23 7.5 °F /  -13.6 °C 5.7 °F /  -14.6 °C 999.9 in /  33856.6 hPa West 7.6 mph /  12.2 km/h 16.3 mph /  26.2 km/h 88 % 0.0 in /  0 mm
13:24 7.5 °F /  -13.6 °C 5.7 °F /  -14.6 °C 999.9 in /  33856.6 hPa West 7.9 mph /  12.7 km/h 16.3 mph /  26.2 km/h 88 % 0.0 in /  0 mm
13:29 7.5 °F /  -13.6 °C 5.3 °F /  -14.8 °C 998.9 in /  33822.8 hPa West 7.2 mph /  11.6 km/h 16.3 mph /  26.2 km/h 86 % 0.0 in /  0 mm
13:31 7.5 °F /  -13.6 °C 5.3 °F /  -14.8 °C 998.9 in /  33822.8 hPa West 6.6 mph /  10.6 km/h 16.3 mph /  26.2 km/h 86 % 0.0 in /  0 mm
13:36 7.6 °F /  -13.6 °C 5.1 °F /  -14.9 °C 998.9 in /  33822.8 hPa West 4.2 mph /  6.8 km/h 11.6 mph /  18.7 km/h 84 % 0.0 in /  0 mm
13:41 7.7 °F /  -13.5 °C 4.8 °F /  -15.1 °C 998.9 in /  33822.8 hPa SSW 3.2 mph /  5.1 km/h 10.5 mph /  16.9 km/h 82 % 0.0 in /  0 mm
13:44 7.8 °F /  -13.4 °C 4.7 °F /  -15.2 °C 998.9 in /  33822.8 hPa SW 5.5 mph /  8.9 km/h 14.8 mph /  23.8 km/h 81 % 0.0 in /  0 mm
13:48 7.8 °F /  -13.4 °C 4.6 °F /  -15.2 °C 998.9 in /  33822.8 hPa SW 7.2 mph /  11.6 km/h 14.8 mph /  23.8 km/h 80 % 0.0 in /  0 mm
13:53 7.9 °F /  -13.4 °C 4.3 °F /  -15.4 °C 998.9 in /  33822.8 hPa SSW 9.0 mph /  14.5 km/h 14.8 mph /  23.8 km/h 78 % 0.0 in /  0 mm
13:54 7.9 °F /  -13.4 °C 4.1 °F /  -15.5 °C 998.9 in /  33822.8 hPa SSW 9.0 mph /  14.5 km/h 13.7 mph /  22 km/h 77 % 0.0 in /  0 mm
13:59 8.0 °F /  -13.3 °C 4.0 °F /  -15.6 °C 998.9 in /  33822.8 hPa SW 7.6 mph /  12.2 km/h 13.7 mph /  22 km/h 76 % 0.0 in /  0 mm
14:04 8.0 °F /  -13.3 °C 3.8 °F /  -15.7 °C 998.9 in /  33822.8 hPa WSW 5.5 mph /  8.9 km/h 9.3 mph /  15 km/h 75 % 0.0 in /  0 mm
14:07 8.0 °F /  -13.3 °C 3.7 °F /  -15.7 °C 998.9 in /  33822.8 hPa WSW 4.5 mph /  7.2 km/h 8.7 mph /  14 km/h 74 % 0.0 in /  0 mm
14:11 8.0 °F /  -13.3 °C 3.4 °F /  -15.9 °C 998.9 in /  33822.8 hPa SW 4.5 mph /  7.2 km/h 8.7 mph /  14 km/h 73 % 0.0 in /  0 mm
14:16 8.0 °F /  -13.3 °C 3.3 °F /  -15.9 °C 998.9 in /  33822.8 hPa WSW 5.5 mph /  8.9 km/h 13.0 mph /  20.9 km/h 72 % 0.0 in /  0 mm
14:20 8.1 °F /  -13.3 °C 3.2 °F /  -16 °C 998.9 in /  33822.8 hPa WSW 6.1 mph /  9.8 km/h 13.0 mph /  20.9 km/h 71 % 0.0 in /  0 mm
14:26 8.1 °F /  -13.3 °C 2.8 °F /  -16.2 °C 998.9 in /  33822.8 hPa WSW 5.6 mph /  9 km/h 11.9 mph /  19.2 km/h 69 % 0.0 in /  0 mm
14:31 8.0 °F /  -13.3 °C 2.4 °F /  -16.4 °C 998.9 in /  33822.8 hPa WSW 5.0 mph /  8 km/h 11.6 mph /  18.7 km/h 68 % 0.0 in /  0 mm
14:36 8.0 °F /  -13.3 °C 2.2 °F /  -16.6 °C 998.9 in /  33822.8 hPa WSW 5.3 mph /  8.5 km/h 12.2 mph /  19.6 km/h 67 % 0.0 in /  0 mm
14:38 8.1 °F /  -13.3 °C 2.3 °F /  -16.5 °C 998.9 in /  33822.8 hPa West 6.0 mph /  9.7 km/h 12.2 mph /  19.6 km/h 67 % 0.0 in /  0 mm
14:39 8.1 °F /  -13.3 °C 2.1 °F /  -16.6 °C 998.9 in /  33822.8 hPa WSW 6.1 mph /  9.8 km/h 12.2 mph /  19.6 km/h 66 % 0.0 in /  0 mm
14:44 8.1 °F /  -13.3 °C 1.9 °F /  -16.7 °C 999.9 in /  33856.6 hPa WSW 5.6 mph /  9 km/h 10.5 mph /  16.9 km/h 65 % 0.0 in /  0 mm
14:48 8.0 °F /  -13.3 °C 1.8 °F /  -16.8 °C 999.9 in /  33856.6 hPa WSW 4.2 mph /  6.8 km/h 9.7 mph /  15.6 km/h 65 % 0.0 in /  0 mm
14:49 8.0 °F /  -13.3 °C 1.6 °F /  -16.9 °C 999.9 in /  33856.6 hPa West 3.5 mph /  5.6 km/h 7.9 mph /  12.7 km/h 64 % 0.0 in /  0 mm
14:54 8.0 °F /  -13.3 °C 1.6 °F /  -16.9 °C 999.9 in /  33856.6 hPa NNW 3.4 mph /  5.5 km/h 7.9 mph /  12.7 km/h 64 % 0.0 in /  0 mm
14:56 7.9 °F /  -13.4 °C 1.5 °F /  -16.9 °C 999.9 in /  33856.6 hPa NNW 3.5 mph /  5.6 km/h 9.3 mph /  15 km/h 64 % 0.0 in /  0 mm
15:01 8.0 °F /  -13.3 °C 1.4 °F /  -17 °C 1000.9 in /  33890.5 hPa WNW 5.1 mph /  8.2 km/h 13.0 mph /  20.9 km/h 63 % 0.0 in /  0 mm
15:02 8.0 °F /  -13.3 °C 1.4 °F /  -17 °C 1000.9 in /  33890.5 hPa WNW 5.3 mph /  8.5 km/h 13.0 mph /  20.9 km/h 63 % 0.0 in /  0 mm
15:03 8.0 °F /  -13.3 °C 1.4 °F /  -17 °C 1000.9 in /  33890.5 hPa WNW 5.3 mph /  8.5 km/h 13.0 mph /  20.9 km/h 63 % 0.0 in /  0 mm
15:08 8.0 °F /  -13.3 °C 1.2 °F /  -17.1 °C 1000.9 in /  33890.5 hPa WNW 5.0 mph /  8 km/h 13.0 mph /  20.9 km/h 62 % 0.0 in /  0 mm
15:13 8.1 °F /  -13.3 °C 1.0 °F /  -17.2 °C 1000.9 in /  33890.5 hPa West 4.7 mph /  7.6 km/h 15.8 mph /  25.4 km/h 61 % 0.0 in /  0 mm
15:18 8.1 °F /  -13.3 °C 0.8 °F /  -17.3 °C 1000.9 in /  33890.5 hPa West 4.8 mph /  7.7 km/h 15.8 mph /  25.4 km/h 60 % 0.0 in /  0 mm
15:22 8.1 °F /  -13.3 °C 0.8 °F /  -17.3 °C 1000.9 in /  33890.5 hPa West 4.5 mph /  7.2 km/h 9.0 mph /  14.5 km/h 60 % 0.0 in /  0 mm
15:23 8.1 °F /  -13.3 °C 0.8 °F /  -17.3 °C 1000.9 in /  33890.5 hPa West 4.5 mph /  7.2 km/h 9.0 mph /  14.5 km/h 60 % 0.0 in /  0 mm
15:28 8.2 °F /  -13.2 °C 0.9 °F /  -17.3 °C 1000.9 in /  33890.5 hPa West 5.0 mph /  8 km/h 10.5 mph /  16.9 km/h 60 % 0.0 in /  0 mm
15:33 8.2 °F /  -13.2 °C 0.7 °F /  -17.4 °C 1000.9 in /  33890.5 hPa WNW 4.7 mph /  7.6 km/h 17.7 mph /  28.5 km/h 59 % 0.0 in /  0 mm
15:35 8.3 °F /  -13.2 °C 0.7 °F /  -17.4 °C 1000.9 in /  33890.5 hPa West 5.8 mph /  9.3 km/h 21.9 mph /  35.2 km/h 59 % 0.0 in /  0 mm
15:38 8.3 °F /  -13.2 °C 0.5 °F /  -17.5 °C 1000.9 in /  33890.5 hPa West 6.9 mph /  11.1 km/h 21.9 mph /  35.2 km/h 58 % 0.0 in /  0 mm
15:41 8.3 °F /  -13.2 °C 0.5 °F /  -17.5 °C 1000.9 in /  33890.5 hPa West 7.2 mph /  11.6 km/h 21.9 mph /  35.2 km/h 58 % 0.0 in /  0 mm
15:46 8.3 °F /  -13.2 °C 0.3 °F /  -17.6 °C 1000.9 in /  33890.5 hPa West 6.6 mph /  10.6 km/h 12.2 mph /  19.6 km/h 57 % 0.0 in /  0 mm
15:47 8.3 °F /  -13.2 °C 0.3 °F /  -17.6 °C 1000.9 in /  33890.5 hPa WSW 6.1 mph /  9.8 km/h 11.6 mph /  18.7 km/h 57 % 0.0 in /  0 mm
15:51 8.2 °F /  -13.2 °C 0.2 °F /  -17.7 °C 1000.9 in /  33890.5 hPa WSW 5.8 mph /  9.3 km/h 11.9 mph /  19.2 km/h 57 % 0.0 in /  0 mm
15:58 8.2 °F /  -13.2 °C 0.2 °F /  -17.7 °C 1001.9 in /  33924.3 hPa WSW 4.7 mph /  7.6 km/h 11.9 mph /  19.2 km/h 57 % 0.0 in /  0 mm
16:03 8.2 °F /  -13.2 °C 0.2 °F /  -17.7 °C 1001.9 in /  33924.3 hPa WNW 4.8 mph /  7.7 km/h 36.4 mph /  58.6 km/h 57 % 0.0 in /  0 mm
16:05 8.1 °F /  -13.3 °C 0.1 °F /  -17.7 °C 1001.9 in /  33924.3 hPa WNW 6.1 mph /  9.8 km/h 36.4 mph /  58.6 km/h 57 % 0.0 in /  0 mm
16:06 8.1 °F /  -13.3 °C 0.1 °F /  -17.7 °C 1001.9 in /  33924.3 hPa NW 6.3 mph /  10.1 km/h 36.4 mph /  58.6 km/h 57 % 0.0 in /  0 mm
16:11 7.8 °F /  -13.4 °C -0.2 °F /  -17.9 °C 1001.9 in /  33924.3 hPa NW 7.4 mph /  11.9 km/h 36.4 mph /  58.6 km/h 57 % 0.3 in /  7.62 mm
16:15 7.5 °F /  -13.6 °C -0.2 °F /  -17.9 °C 1001.9 in /  33924.3 hPa NW 7.2 mph /  11.6 km/h 17.2 mph /  27.7 km/h 58 % 0.3 in /  7.62 mm
16:20 7.3 °F /  -13.7 °C -0.4 °F /  -18 °C 1001.9 in /  33924.3 hPa WNW 7.7 mph /  12.4 km/h 21.9 mph /  35.2 km/h 58 % 0.5 in /  12.7 mm
16:21 7.3 °F /  -13.7 °C -0.4 °F /  -18 °C 1001.9 in /  33924.3 hPa West 7.6 mph /  12.2 km/h 21.9 mph /  35.2 km/h 58 % 0.5 in /  12.7 mm
16:24 7.2 °F /  -13.8 °C -0.3 °F /  -17.9 °C 1001.9 in /  33924.3 hPa West 7.1 mph /  11.4 km/h 21.9 mph /  35.2 km/h 59 % 0.5 in /  12.7 mm
16:28 7.0 °F /  -13.9 °C -0.2 °F /  -17.9 °C 1001.9 in /  33924.3 hPa WSW 6.1 mph /  9.8 km/h 13.7 mph /  22 km/h 60 % 0.5 in /  12.7 mm
16:33 6.8 °F /  -14 °C -0.2 °F /  -17.9 °C 1001.9 in /  33924.3 hPa WSW 6.4 mph /  10.3 km/h 13.7 mph /  22 km/h 61 % 0.5 in /  12.7 mm
16:34 6.8 °F /  -14 °C -0.2 °F /  -17.9 °C 1001.9 in /  33924.3 hPa WSW 6.8 mph /  10.9 km/h 16.3 mph /  26.2 km/h 61 % 0.5 in /  12.7 mm
16:39 6.7 °F /  -14.1 °C -0.1 °F /  -17.8 °C 1001.9 in /  33924.3 hPa WSW 6.9 mph /  11.1 km/h 16.3 mph /  26.2 km/h 62 % 0.8 in /  20.32 mm
16:40 6.7 °F /  -14.1 °C -0.1 °F /  -17.8 °C 1001.9 in /  33924.3 hPa WSW 6.6 mph /  10.6 km/h 16.3 mph /  26.2 km/h 62 % 0.8 in /  20.32 mm
16:42 6.6 °F /  -14.1 °C -0.2 °F /  -17.9 °C 1001.9 in /  33924.3 hPa SW 6.6 mph /  10.6 km/h 16.3 mph /  26.2 km/h 62 % 1.0 in /  25.4 mm
16:45 6.5 °F /  -14.2 °C -0.1 °F /  -17.8 °C 1001.9 in /  33924.3 hPa SW 5.1 mph /  8.2 km/h 7.2 mph /  11.6 km/h 63 % 1.0 in /  25.4 mm
16:50 6.4 °F /  -14.2 °C 0.1 °F /  -17.7 °C 1001.9 in /  33924.3 hPa SW 3.9 mph /  6.3 km/h 5.8 mph /  9.3 km/h 64 % 1.0 in /  25.4 mm
16:52 6.3 °F /  -14.3 °C 0.0 °F /  -17.8 °C 1001.9 in /  33924.3 hPa WSW 3.4 mph /  5.5 km/h 5.8 mph /  9.3 km/h 64 % 1.0 in /  25.4 mm
16:57 6.1 °F /  -14.4 °C 0.0 °F /  -17.8 °C 1001.9 in /  33924.3 hPa SW 2.9 mph /  4.7 km/h 5.5 mph /  8.9 km/h 65 % 1.3 in /  33.02 mm
16:58 6.1 °F /  -14.4 °C 0.2 °F /  -17.7 °C 1002.9 in /  33958.2 hPa SW 3.1 mph /  5 km/h 5.5 mph /  8.9 km/h 66 % 1.3 in /  33.02 mm
17:03 6.0 °F /  -14.4 °C 0.3 °F /  -17.6 °C 1002.9 in /  33958.2 hPa SW 3.9 mph /  6.3 km/h 6.1 mph /  9.8 km/h 67 % 1.5 in /  38.1 mm
17:04 5.9 °F /  -14.5 °C 0.2 °F /  -17.7 °C 1002.9 in /  33958.2 hPa SSW 4.3 mph /  6.9 km/h 7.6 mph /  12.2 km/h 67 % 1.5 in /  38.1 mm
17:09 5.8 °F /  -14.6 °C 0.3 °F /  -17.6 °C 1002.9 in /  33958.2 hPa SSW 4.5 mph /  7.2 km/h 7.6 mph /  12.2 km/h 68 % 1.8 in /  45.72 mm
17:11 5.8 °F /  -14.6 °C 0.6 °F /  -17.4 °C 1002.9 in /  33958.2 hPa South 4.2 mph /  6.8 km/h 7.6 mph /  12.2 km/h 69 % 1.8 in /  45.72 mm
17:13 5.8 °F /  -14.6 °C 0.6 °F /  -17.4 °C 1001.9 in /  33924.3 hPa South 3.5 mph /  5.6 km/h 7.6 mph /  12.2 km/h 69 % 1.8 in /  45.72 mm
17:17 5.7 °F /  -14.6 °C 0.7 °F /  -17.4 °C 1001.9 in /  33924.3 hPa SSE 2.9 mph /  4.7 km/h 5.0 mph /  8 km/h 70 % 1.8 in /  45.72 mm
17:22 5.6 °F /  -14.7 °C 0.8 °F /  -17.3 °C 1001.9 in /  33924.3 hPa SSE 2.4 mph /  3.9 km/h 5.0 mph /  8 km/h 71 % 1.8 in /  45.72 mm
17:25 5.6 °F /  -14.7 °C 0.8 °F /  -17.3 °C 1001.9 in /  33924.3 hPa SSE 2.1 mph /  3.4 km/h 4.7 mph /  7.6 km/h 71 % 1.8 in /  45.72 mm
17:26 5.6 °F /  -14.7 °C 0.8 °F /  -17.3 °C 1001.9 in /  33924.3 hPa South 1.4 mph /  2.3 km/h 4.0 mph /  6.4 km/h 71 % 1.8 in /  45.72 mm
17:31 5.5 °F /  -14.7 °C 0.8 °F /  -17.3 °C 1002.9 in /  33958.2 hPa SSE 2.1 mph /  3.4 km/h 6.4 mph /  10.3 km/h 72 % 1.8 in /  45.72 mm
17:36 5.4 °F /  -14.8 °C 0.9 °F /  -17.3 °C 1002.9 in /  33958.2 hPa SSE 4.3 mph /  6.9 km/h 9.3 mph /  15 km/h 73 % 1.8 in /  45.72 mm
17:37 5.4 °F /  -14.8 °C 0.9 °F /  -17.3 °C 1002.9 in /  33958.2 hPa SSE 5.1 mph /  8.2 km/h 9.3 mph /  15 km/h 73 % 1.8 in /  45.72 mm
17:38 5.4 °F /  -14.8 °C 0.9 °F /  -17.3 °C 1002.9 in /  33958.2 hPa SSE 5.5 mph /  8.9 km/h 9.3 mph /  15 km/h 73 % 1.3 in /  33.02 mm
17:42 5.3 °F /  -14.8 °C 0.8 °F /  -17.3 °C 1002.9 in /  33958.2 hPa SSE 6.1 mph /  9.8 km/h 10.5 mph /  16.9 km/h 73 % 1.3 in /  33.02 mm
17:47 5.3 °F /  -14.8 °C 1.1 °F /  -17.2 °C 1001.9 in /  33924.3 hPa SSE 5.0 mph /  8 km/h 10.5 mph /  16.9 km/h 74 % 1.0 in /  25.4 mm
17:52 5.3 °F /  -14.8 °C 1.2 °F /  -17.1 °C 1001.9 in /  33924.3 hPa SW 4.0 mph /  6.4 km/h 7.9 mph /  12.7 km/h 75 % 1.0 in /  25.4 mm
17:54 5.3 °F /  -14.8 °C 1.2 °F /  -17.1 °C 1001.9 in /  33924.3 hPa SW 3.9 mph /  6.3 km/h 8.7 mph /  14 km/h 75 % 1.0 in /  25.4 mm
17:59 5.2 °F /  -14.9 °C 1.1 °F /  -17.2 °C 1002.9 in /  33958.2 hPa West 5.5 mph /  8.9 km/h 8.7 mph /  14 km/h 75 % 0.8 in /  20.32 mm
18:01 5.2 °F /  -14.9 °C 1.1 °F /  -17.2 °C 1002.9 in /  33958.2 hPa West 5.8 mph /  9.3 km/h 8.7 mph /  14 km/h 75 % 0.8 in /  20.32 mm
18:02 5.2 °F /  -14.9 °C 1.1 °F /  -17.2 °C 1002.9 in /  33958.2 hPa WNW 6.0 mph /  9.7 km/h 8.7 mph /  14 km/h 75 % 0.8 in /  20.32 mm
18:07 5.1 °F /  -14.9 °C 1.2 °F /  -17.1 °C 1002.9 in /  33958.2 hPa North 3.5 mph /  5.6 km/h 7.9 mph /  12.7 km/h 76 % 0.3 in /  7.62 mm
18:12 5.1 °F /  -14.9 °C 1.4 °F /  -17 °C 1002.9 in /  33958.2 hPa NE 0.6 mph /  1 km/h 4.0 mph /  6.4 km/h 77 % 0.3 in /  7.62 mm
18:14 5.0 °F /  -15 °C 1.3 °F /  -17.1 °C 1002.9 in /  33958.2 hPa SW 0.2 mph /  0.3 km/h 2.1 mph /  3.4 km/h 77 % 0.3 in /  7.62 mm
18:19 4.9 °F /  -15.1 °C 1.4 °F /  -17 °C 1002.9 in /  33958.2 hPa Calm   2.1 mph /  3.4 km/h 78 % 0.0 in /  0 mm
18:21 4.9 °F /  -15.1 °C 1.4 °F /  -17 °C 1002.9 in /  33958.2 hPa Calm   2.1 mph /  3.4 km/h 78 % 0.0 in /  0 mm
18:25 4.8 °F /  -15.1 °C 1.3 °F /  -17.1 °C 1002.9 in /  33958.2 hPa SW 1.0 mph /  1.6 km/h 4.7 mph /  7.6 km/h 78 % 0.0 in /  0 mm
18:30 4.7 °F /  -15.2 °C 1.2 °F /  -17.1 °C 1002.9 in /  33958.2 hPa SW 1.9 mph /  3.1 km/h 4.7 mph /  7.6 km/h 78 % 0.0 in /  0 mm
18:31 4.7 °F /  -15.2 °C 1.4 °F /  -17 °C 1002.9 in /  33958.2 hPa SW 1.9 mph /  3.1 km/h 4.7 mph /  7.6 km/h 79 % 0.0 in /  0 mm
18:33 4.7 °F /  -15.2 °C 1.4 °F /  -17 °C 1002.9 in /  33958.2 hPa SW 1.4 mph /  2.3 km/h 4.3 mph /  6.9 km/h 79 % 0.0 in /  0 mm
18:37 4.6 °F /  -15.2 °C 1.3 °F /  -17.1 °C 1002.9 in /  33958.2 hPa North 0.2 mph /  0.3 km/h   79 % 0.0 in /  0 mm
18:40 4.6 °F /  -15.2 °C 1.4 °F /  -17 °C 1002.9 in /  33958.2 hPa Calm     80 % 0.0 in /  0 mm
18:42 4.6 °F /  -15.2 °C 1.4 °F /  -17 °C 1002.9 in /  33958.2 hPa Calm     80 % 0.0 in /  0 mm
18:47 4.5 °F /  -15.3 °C 1.3 °F /  -17.1 °C 1002.9 in /  33958.2 hPa Calm     80 % 0.0 in /  0 mm
18:48 4.5 °F /  -15.3 °C 1.3 °F /  -17.1 °C 1002.9 in /  33958.2 hPa SW 0.2 mph /  0.3 km/h 4.3 mph /  6.9 km/h 80 % 0.0 in /  0 mm
18:49 4.4 °F /  -15.3 °C 1.4 °F /  -17 °C 1002.9 in /  33958.2 hPa SW 0.5 mph /  0.8 km/h 4.3 mph /  6.9 km/h 81 % 0.0 in /  0 mm
18:53 4.4 °F /  -15.3 °C 1.4 °F /  -17 °C 1002.9 in /  33958.2 hPa SW 1.8 mph /  2.9 km/h 4.7 mph /  7.6 km/h 81 % 0.0 in /  0 mm
18:58 4.3 °F /  -15.4 °C 1.3 °F /  -17.1 °C 1002.9 in /  33958.2 hPa WSW 3.4 mph /  5.5 km/h 4.7 mph /  7.6 km/h 81 % 0.0 in /  0 mm
19:02 4.3 °F /  -15.4 °C 1.5 °F /  -16.9 °C 1002.9 in /  33958.2 hPa West 2.4 mph /  3.9 km/h 4.7 mph /  7.6 km/h 82 % 0.0 in /  0 mm
19:07 4.2 °F /  -15.4 °C 1.4 °F /  -17 °C 1002.9 in /  33958.2 hPa WNW 1.3 mph /  2.1 km/h 4.0 mph /  6.4 km/h 82 % 0.0 in /  0 mm
19:13 4.1 °F /  -15.5 °C 1.3 °F /  -17.1 °C 1002.9 in /  33958.2 hPa West 0.6 mph /  1 km/h 3.5 mph /  5.6 km/h 82 % 0.0 in /  0 mm
19:15 4.1 °F /  -15.5 °C 1.4 °F /  -17 °C 1002.9 in /  33958.2 hPa North 0.2 mph /  0.3 km/h   83 % 0.0 in /  0 mm
19:20 4.0 °F /  -15.6 °C 1.4 °F /  -17 °C 1002.9 in /  33958.2 hPa Calm     83 % 0.0 in /  0 mm
19:23 4.0 °F /  -15.6 °C 1.4 °F /  -17 °C 1002.9 in /  33958.2 hPa Calm     83 % 0.0 in /  0 mm
19:28 3.9 °F /  -15.6 °C 1.4 °F /  -17 °C 1003.9 in /  33992.1 hPa Calm     84 % 0.0 in /  0 mm
19:33 3.8 °F /  -15.7 °C 1.3 °F /  -17.1 °C 1003.9 in /  33992.1 hPa WSW 0.5 mph /  0.8 km/h 4.3 mph /  6.9 km/h 84 % 0.0 in /  0 mm
19:36 3.8 °F /  -15.7 °C 1.3 °F /  -17.1 °C 1003.9 in /  33992.1 hPa SW 1.3 mph /  2.1 km/h 4.3 mph /  6.9 km/h 84 % 0.0 in /  0 mm
19:37 3.8 °F /  -15.7 °C 1.3 °F /  -17.1 °C 1003.9 in /  33992.1 hPa SW 1.8 mph /  2.9 km/h 4.7 mph /  7.6 km/h 84 % 0.0 in /  0 mm
19:42 3.8 °F /  -15.7 °C 1.5 °F /  -16.9 °C 1003.9 in /  33992.1 hPa SW 3.2 mph /  5.1 km/h 4.7 mph /  7.6 km/h 85 % 0.0 in /  0 mm
19:43 3.7 °F /  -15.7 °C 1.4 °F /  -17 °C 1003.9 in /  33992.1 hPa SW 2.9 mph /  4.7 km/h 4.7 mph /  7.6 km/h 85 % 0.0 in /  0 mm
19:44 3.7 °F /  -15.7 °C 1.4 °F /  -17 °C 1003.9 in /  33992.1 hPa SW 2.6 mph /  4.2 km/h 4.7 mph /  7.6 km/h 85 % 0.0 in /  0 mm
19:48 3.7 °F /  -15.7 °C 1.4 °F /  -17 °C 1003.9 in /  33992.1 hPa WSW 1.3 mph /  2.1 km/h 4.7 mph /  7.6 km/h 85 % 0.0 in /  0 mm
19:50 3.6 °F /  -15.8 °C 1.3 °F /  -17.1 °C 1003.9 in /  33992.1 hPa West 0.6 mph /  1 km/h 4.3 mph /  6.9 km/h 85 % 0.0 in /  0 mm
19:55 3.6 °F /  -15.8 °C 1.3 °F /  -17.1 °C 1003.9 in /  33992.1 hPa West 1.4 mph /  2.3 km/h 4.3 mph /  6.9 km/h 85 % 0.0 in /  0 mm
20:00 3.4 °F /  -15.9 °C 1.1 °F /  -17.2 °C 1003.9 in /  33992.1 hPa West 1.1 mph /  1.8 km/h 4.0 mph /  6.4 km/h 85 % 0.0 in /  0 mm
20:09 3.3 °F /  -15.9 °C 1.2 °F /  -17.1 °C 1003.9 in /  33992.1 hPa WSW 0.5 mph /  0.8 km/h 3.5 mph /  5.6 km/h 86 % 0.0 in /  0 mm
20:14 3.2 °F /  -16 °C 1.1 °F /  -17.2 °C 1003.9 in /  33992.1 hPa SSW 2.3 mph /  3.7 km/h 4.3 mph /  6.9 km/h 86 % 0.0 in /  0 mm
20:16 3.3 °F /  -15.9 °C 1.2 °F /  -17.1 °C 1003.9 in /  33992.1 hPa SSW 2.6 mph /  4.2 km/h 6.9 mph /  11.1 km/h 86 % 0.0 in /  0 mm
20:20 3.2 °F /  -16 °C 1.1 °F /  -17.2 °C 1003.9 in /  33992.1 hPa SW 3.4 mph /  5.5 km/h 6.9 mph /  11.1 km/h 86 % 0.0 in /  0 mm
20:25 3.1 °F /  -16.1 °C 1.0 °F /  -17.2 °C 1003.9 in /  33992.1 hPa West 3.5 mph /  5.6 km/h 5.8 mph /  9.3 km/h 86 % 0.0 in /  0 mm
20:26 3.1 °F /  -16.1 °C 1.0 °F /  -17.2 °C 1003.9 in /  33992.1 hPa West 3.5 mph /  5.6 km/h 5.8 mph /  9.3 km/h 86 % 0.0 in /  0 mm
20:29 3.1 °F /  -16.1 °C 1.2 °F /  -17.1 °C 1003.9 in /  33992.1 hPa WNW 2.3 mph /  3.7 km/h 5.5 mph /  8.9 km/h 87 % 0.0 in /  0 mm
20:31 3.1 °F /  -16.1 °C 1.2 °F /  -17.1 °C 1003.9 in /  33992.1 hPa NW 1.6 mph /  2.6 km/h 5.0 mph /  8 km/h 87 % 0.0 in /  0 mm
20:36 3.0 °F /  -16.1 °C 1.1 °F /  -17.2 °C 1003.9 in /  33992.1 hPa WNW 0.5 mph /  0.8 km/h 5.0 mph /  8 km/h 87 % 0.0 in /  0 mm
20:41 3.0 °F /  -16.1 °C 1.1 °F /  -17.2 °C 1003.9 in /  33992.1 hPa WSW 1.0 mph /  1.6 km/h 5.5 mph /  8.9 km/h 87 % 0.0 in /  0 mm
20:46 3.0 °F /  -16.1 °C 1.1 °F /  -17.2 °C 1005.0 in /  34029.3 hPa SW 2.9 mph /  4.7 km/h 5.8 mph /  9.3 km/h 87 % 0.0 in /  0 mm
20:47 2.9 °F /  -16.2 °C 1.1 °F /  -17.2 °C 1005.0 in /  34029.3 hPa SW 3.1 mph /  5 km/h 5.8 mph /  9.3 km/h 88 % 0.0 in /  0 mm
20:52 2.8 °F /  -16.2 °C 1.0 °F /  -17.2 °C 1005.0 in /  34029.3 hPa West 2.4 mph /  3.9 km/h 4.7 mph /  7.6 km/h 88 % 0.0 in /  0 mm
20:54 2.7 °F /  -16.3 °C 0.9 °F /  -17.3 °C 1005.0 in /  34029.3 hPa WNW 2.3 mph /  3.7 km/h 4.7 mph /  7.6 km/h 88 % 0.0 in /  0 mm
20:59 2.6 °F /  -16.3 °C 0.8 °F /  -17.3 °C 1005.0 in /  34029.3 hPa NW 1.1 mph /  1.8 km/h 4.0 mph /  6.4 km/h 88 % 0.0 in /  0 mm
21:04 2.5 °F /  -16.4 °C 0.7 °F /  -17.4 °C 1005.0 in /  34029.3 hPa NW 0.2 mph /  0.3 km/h 1.8 mph /  2.9 km/h 88 % 0.0 in /  0 mm
21:05 2.5 °F /  -16.4 °C 0.7 °F /  -17.4 °C 1005.0 in /  34029.3 hPa Calm     88 % 0.0 in /  0 mm
21:10 2.4 °F /  -16.4 °C 0.6 °F /  -17.4 °C 1005.0 in /  34029.3 hPa Calm     88 % 0.0 in /  0 mm
21:16 2.3 °F /  -16.5 °C 0.5 °F /  -17.5 °C 1005.0 in /  34029.3 hPa SW 0.6 mph /  1 km/h 5.0 mph /  8 km/h 88 % 0.0 in /  0 mm
21:21 2.1 °F /  -16.6 °C 0.3 °F /  -17.6 °C 1005.0 in /  34029.3 hPa WSW 1.4 mph /  2.3 km/h 5.0 mph /  8 km/h 88 % 0.0 in /  0 mm
21:23 2.0 °F /  -16.7 °C 0.2 °F /  -17.7 °C 1005.0 in /  34029.3 hPa WSW 1.4 mph /  2.3 km/h 5.0 mph /  8 km/h 88 % 0.0 in /  0 mm
21:28 1.9 °F /  -16.7 °C 0.1 °F /  -17.7 °C 1005.0 in /  34029.3 hPa Calm     88 % 0.0 in /  0 mm
21:30 1.8 °F /  -16.8 °C 0.0 °F /  -17.8 °C 1005.0 in /  34029.3 hPa Calm     88 % 0.0 in /  0 mm
21:35 1.6 °F /  -16.9 °C 0.0 °F /  -17.8 °C 1005.0 in /  34029.3 hPa WSW 0.8 mph /  1.3 km/h 4.0 mph /  6.4 km/h 89 % 0.0 in /  0 mm
21:38 1.6 °F /  -16.9 °C 0.0 °F /  -17.8 °C 1005.0 in /  34029.3 hPa WSW 1.0 mph /  1.6 km/h 4.0 mph /  6.4 km/h 89 % 0.0 in /  0 mm
21:45 1.4 °F /  -17 °C -0.2 °F /  -17.9 °C 1005.0 in /  34029.3 hPa WSW 0.5 mph /  0.8 km/h 3.2 mph /  5.1 km/h 89 % 0.0 in /  0 mm
21:47 1.4 °F /  -17 °C -0.2 °F /  -17.9 °C 1005.0 in /  34029.3 hPa WSW 0.3 mph /  0.5 km/h 3.2 mph /  5.1 km/h 89 % 0.0 in /  0 mm
21:52 1.3 °F /  -17.1 °C -0.3 °F /  -17.9 °C 1005.0 in /  34029.3 hPa Calm   1.8 mph /  2.9 km/h 89 % 0.0 in /  0 mm
21:53 1.3 °F /  -17.1 °C -0.3 °F /  -17.9 °C 1005.0 in /  34029.3 hPa Calm   1.8 mph /  2.9 km/h 89 % 0.0 in /  0 mm
21:54 1.3 °F /  -17.1 °C -0.3 °F /  -17.9 °C 1005.0 in /  34029.3 hPa Calm   4.7 mph /  7.6 km/h 89 % 0.0 in /  0 mm
21:59 1.2 °F /  -17.1 °C -0.4 °F /  -18 °C 1005.0 in /  34029.3 hPa WNW 0.6 mph /  1 km/h 4.7 mph /  7.6 km/h 89 % 0.0 in /  0 mm
22:01 1.1 °F /  -17.2 °C -0.5 °F /  -18.1 °C 1005.0 in /  34029.3 hPa NW 0.8 mph /  1.3 km/h 4.7 mph /  7.6 km/h 89 % 0.0 in /  0 mm
22:02 1.1 °F /  -17.2 °C -0.5 °F /  -18.1 °C 1005.0 in /  34029.3 hPa NW 1.3 mph /  2.1 km/h 4.7 mph /  7.6 km/h 89 % 0.0 in /  0 mm
22:07 1.0 °F /  -17.2 °C -0.6 °F /  -18.1 °C 1005.0 in /  34029.3 hPa NNW 1.0 mph /  1.6 km/h 4.3 mph /  6.9 km/h 89 % 0.0 in /  0 mm
22:09 1.0 °F /  -17.2 °C -0.6 °F /  -18.1 °C 1005.0 in /  34029.3 hPa NNW 1.0 mph /  1.6 km/h 4.3 mph /  6.9 km/h 89 % 0.0 in /  0 mm
22:10 1.0 °F /  -17.2 °C -0.6 °F /  -18.1 °C 1005.0 in /  34029.3 hPa NNW 1.0 mph /  1.6 km/h 4.3 mph /  6.9 km/h 89 % 0.0 in /  0 mm
22:15 0.9 °F /  -17.3 °C -0.7 °F /  -18.2 °C 1005.0 in /  34029.3 hPa WNW 0.5 mph /  0.8 km/h 4.0 mph /  6.4 km/h 89 % 0.0 in /  0 mm
22:20 0.8 °F /  -17.3 °C -0.8 °F /  -18.2 °C 1005.0 in /  34029.3 hPa WNW 0.5 mph /  0.8 km/h 4.0 mph /  6.4 km/h 89 % 0.0 in /  0 mm
22:21 0.7 °F /  -17.4 °C -0.9 °F /  -18.3 °C 1005.0 in /  34029.3 hPa WNW 0.5 mph /  0.8 km/h 4.0 mph /  6.4 km/h 89 % 0.0 in /  0 mm
22:25 0.7 °F /  -17.4 °C -0.9 °F /  -18.3 °C 1005.0 in /  34029.3 hPa Calm     89 % 0.0 in /  0 mm
22:30 0.6 °F /  -17.4 °C -1.0 °F /  -18.3 °C 1003.9 in /  33992.1 hPa Calm   3.5 mph /  5.6 km/h 89 % 0.0 in /  0 mm
22:31 0.6 °F /  -17.4 °C -1.0 °F /  -18.3 °C 1003.9 in /  33992.1 hPa WNW 0.2 mph /  0.3 km/h 3.5 mph /  5.6 km/h 89 % 0.0 in /  0 mm
22:36 0.6 °F /  -17.4 °C -1.0 °F /  -18.3 °C 1003.9 in /  33992.1 hPa SW 1.3 mph /  2.1 km/h 4.7 mph /  7.6 km/h 89 % 0.0 in /  0 mm
22:37 0.6 °F /  -17.4 °C -1.0 °F /  -18.3 °C 1003.9 in /  33992.1 hPa SW 1.9 mph /  3.1 km/h 5.5 mph /  8.9 km/h 89 % 0.0 in /  0 mm
22:42 0.6 °F /  -17.4 °C -1.0 °F /  -18.3 °C 1003.9 in /  33992.1 hPa SSW 3.1 mph /  5 km/h 5.5 mph /  8.9 km/h 89 % 0.0 in /  0 mm
22:47 0.5 °F /  -17.5 °C -1.1 °F /  -18.4 °C 1003.9 in /  33992.1 hPa SW 1.4 mph /  2.3 km/h 5.0 mph /  8 km/h 89 % 0.0 in /  0 mm
22:48 0.5 °F /  -17.5 °C -1.1 °F /  -18.4 °C 1003.9 in /  33992.1 hPa SW 1.3 mph /  2.1 km/h 5.0 mph /  8 km/h 89 % 0.0 in /  0 mm
22:53 0.4 °F /  -17.6 °C -1.1 °F /  -18.4 °C 1003.9 in /  33992.1 hPa Calm     90 % 0.0 in /  0 mm
22:56 0.4 °F /  -17.6 °C -1.1 °F /  -18.4 °C 1003.9 in /  33992.1 hPa SW 0.6 mph /  1 km/h 4.0 mph /  6.4 km/h 90 % 0.0 in /  0 mm
22:59 0.4 °F /  -17.6 °C -1.1 °F /  -18.4 °C 1005.0 in /  34029.3 hPa West 0.8 mph /  1.3 km/h 4.0 mph /  6.4 km/h 90 % 0.0 in /  0 mm
23:03 0.3 °F /  -17.6 °C -1.2 °F /  -18.4 °C 1005.0 in /  34029.3 hPa WNW 1.0 mph /  1.6 km/h 4.0 mph /  6.4 km/h 90 % 0.0 in /  0 mm
23:08 0.2 °F /  -17.7 °C -1.2 °F /  -18.4 °C 1005.0 in /  34029.3 hPa North 0.3 mph /  0.5 km/h 2.6 mph /  4.2 km/h 90 % 0.0 in /  0 mm
23:10 0.2 °F /  -17.7 °C -1.2 °F /  -18.4 °C 1005.0 in /  34029.3 hPa Calm     90 % 0.0 in /  0 mm
23:15 0.1 °F /  -17.7 °C -1.3 °F /  -18.5 °C 1005.0 in /  34029.3 hPa Calm   1.4 mph /  2.3 km/h 90 % 0.0 in /  0 mm
23:16 0.1 °F /  -17.7 °C -1.3 °F /  -18.5 °C 1005.0 in /  34029.3 hPa Calm   1.4 mph /  2.3 km/h 90 % 0.0 in /  0 mm
23:21 0.1 °F /  -17.7 °C -1.3 °F /  -18.5 °C 1005.0 in /  34029.3 hPa Calm   2.6 mph /  4.2 km/h 90 % 0.0 in /  0 mm
23:23 0.1 °F /  -17.7 °C -1.3 °F /  -18.5 °C 1005.0 in /  34029.3 hPa Calm   2.6 mph /  4.2 km/h 90 % 0.0 in /  0 mm
23:28 0.0 °F /  -17.8 °C -1.4 °F /  -18.6 °C 1005.0 in /  34029.3 hPa Calm     90 % 0.0 in /  0 mm
23:31 0.0 °F /  -17.8 °C -1.4 °F /  -18.6 °C 1005.0 in /  34029.3 hPa Calm     90 % 0.0 in /  0 mm
23:36 -0.1 °F /  -17.8 °C -1.6 °F /  -18.7 °C 1005.0 in /  34029.3 hPa Calm     90 % 0.0 in /  0 mm
23:37 -0.1 °F /  -17.8 °C -1.6 °F /  -18.7 °C 1005.0 in /  34029.3 hPa Calm     90 % 0.0 in /  0 mm
23:42 -0.2 °F /  -17.9 °C -1.7 °F /  -18.7 °C 1005.0 in /  34029.3 hPa Calm     90 % 0.0 in /  0 mm
23:47 -0.3 °F /  -17.9 °C -1.7 °F /  -18.7 °C 1005.0 in /  34029.3 hPa Calm     90 % 0.0 in /  0 mm
23:52 -0.3 °F /  -17.9 °C -1.7 °F /  -18.7 °C 1005.0 in /  34029.3 hPa Calm     90 % 0.0 in /  0 mm
23:54 -0.3 °F /  -17.9 °C -1.7 °F /  -18.7 °C 1005.0 in /  34029.3 hPa Calm     90 % 0.0 in /  0 mm
23:57 -0.3 °F /  -17.9 °C -1.7 °F /  -18.7 °C 1005.0 in /  34029.3 hPa Calm     90 % 0.0 in /  0 mm
Vremenska postaja Senovo
Podatki zbrani iz Weather Underground - 3.5 mb

Script developed by  Jim McMurry - jmcmurry@mwt.net Adapted for the template by  Wim van der Kuil - Leuven-Template.eu

Vremenski podatki so objavljeni na:

European Weather Network

WeatherCloud

Weather Underground

AWEKAS

HAMweather, WeatherForYou, PWS Weather

MapView

Geostik

Slovenia weather network

Oprema, ki se uporablja:

Vremenski program
Cumulus

Vremenski server
Asus

Cumulus

Asus